Ionia, Kansas
Current Conditions -  °F | °C
As of 4:55 PM on Thursday 27 Nov 2014 (Local Time) from KCNK Reporting Station
Clear Clear  
Wind Chill: 32°   Ceiling: Unl
Heat Index: 39°   Visibility: 10mi
Dew Point: 17°   Wind: 12mph
Humidity: 41%   Direction: 160°SSE
Pressure: 30.22"   Gusts: NA
Location:  39.6687°N, 98.0318°W
Report Text: KCNK 272255Z AUTO 16010KT 10SM CLR 04/M08 A3022 RMK AO2 SLP250 T00391083
Loading
Personal Weather Stations






























Interactive Weather Map New forecast layout! Learn more

10-Day Weather Forecast

Advertisements
Track Severe Weather on mobile